Time;durP1;ratioP1;P1;durP2;ratioP2;P2;SDS_P1;SDS_P2;PMS_P1;PMS_P2;Temp;Humidity;BMP_temperature;BMP_pressure;BME280_temperature;BME280_humidity;BME280_pressure;Samples;Min_cycle;Max_cycle;Signal;HPM_P1;HPM_P2
2021/07/31 00:01:38;;;;;;;7.83;3.93;;;15.50;99.90;;;;;;5223877;28;20210;-70
2021/07/31 00:04:10;;;;;;;8.50;4.17;;;15.50;99.90;;;;;;5207631;28;20237;-71
2021/07/31 00:06:42;;;;;;;8.00;3.73;;;15.50;99.90;;;;;;5208100;28;20205;-70
2021/07/31 00:09:17;;;;;;;8.90;3.80;;;15.50;99.90;;;;;;5206991;28;20234;-70
2021/07/31 00:11:49;;;;;;;7.07;4.00;;;15.50;99.90;;;;;;5208257;28;20534;-71
2021/07/31 00:14:24;;;;;;;6.43;3.70;;;15.50;99.90;;;;;;5208077;28;20713;-71
2021/07/31 00:16:56;;;;;;;7.27;3.60;;;15.40;99.90;;;;;;5208323;28;20212;-73
2021/07/31 00:19:28;;;;;;;6.53;3.83;;;15.40;99.90;;;;;;5208336;28;20241;-71
2021/07/31 00:22:03;;;;;;;6.80;4.20;;;15.40;99.90;;;;;;5207904;28;20202;-72
2021/07/31 00:24:35;;;;;;;8.67;3.97;;;15.40;99.90;;;;;;5208198;28;20236;-72
2021/07/31 00:27:09;;;;;;;6.07;3.50;;;15.30;99.90;;;;;;5207261;28;20206;-69
2021/07/31 00:29:43;;;;;;;9.17;3.83;;;15.30;99.90;;;;;;5207553;28;20225;-73
2021/07/31 00:32:15;;;;;;;6.07;3.67;;;15.30;99.90;;;;;;5206757;28;20206;-70
2021/07/31 00:34:47;;;;;;;6.33;3.87;;;15.20;99.90;;;;;;5206932;28;20226;-73
2021/07/31 00:37:19;;;;;;;7.17;3.60;;;15.20;99.90;;;;;;5208120;28;20209;-71
2021/07/31 00:39:54;;;;;;;7.43;3.97;;;15.20;99.90;;;;;;5207916;28;20230;-70
2021/07/31 00:42:26;;;;;;;8.93;4.60;;;15.10;99.90;;;;;;5207941;28;20210;-69
2021/07/31 00:45:01;;;;;;;5.83;3.90;;;15.10;99.90;;;;;;5206792;28;20245;-68
2021/07/31 00:47:38;;;;;;;9.17;3.93;;;15.10;99.90;;;;;;5206602;28;20201;-72
2021/07/31 00:50:11;;;;;;;6.50;3.17;;;15.00;99.90;;;;;;5208180;28;20543;-72
2021/07/31 00:52:44;;;;;;;8.90;3.70;;;15.10;99.90;;;;;;5207561;28;20276;-70
2021/07/31 00:55:16;;;;;;;5.57;3.60;;;15.00;99.90;;;;;;5207673;28;20322;-71
2021/07/31 00:57:52;;;;;;;6.20;3.60;;;15.00;99.90;;;;;;5207501;28;20238;-69
2021/07/31 01:00:25;;;;;;;5.50;3.80;;;15.00;99.90;;;;;;5208018;28;20287;-70
2021/07/31 01:02:57;;;;;;;7.27;3.73;;;15.00;99.90;;;;;;5207500;28;20221;-69
2021/07/31 01:05:29;;;;;;;5.97;3.37;;;15.00;99.90;;;;;;5190534;28;20241;-69
2021/07/31 01:08:02;;;;;;;8.33;3.70;;;14.90;99.90;;;;;;5207639;28;20622;-70
2021/07/31 01:10:34;;;;;;;6.30;3.40;;;14.90;99.90;;;;;;5207731;28;20238;-71
2021/07/31 01:13:07;;;;;;;7.77;3.97;;;14.90;99.90;;;;;;5223669;28;20653;-71
2021/07/31 01:16:07;;;;;;;6.83;3.50;;;14.90;99.90;;;;;;5208609;28;20280;-69
2021/07/31 01:18:39;;;;;;;5.70;3.63;;;14.90;99.90;;;;;;5223194;28;20210;-70
2021/07/31 01:21:33;;;;;;;6.17;3.03;;;14.90;99.90;;;;;;5207133;28;20610;-70
2021/07/31 01:24:07;;;;;;;5.70;3.50;;;14.80;99.90;;;;;;5208106;28;20622;-71
2021/07/31 01:26:44;;;;;;;5.33;3.30;;;14.80;99.90;;;;;;5223302;28;20225;-72
2021/07/31 01:29:20;;;;;;;6.50;3.60;;;14.80;99.90;;;;;;5206841;28;20500;-71
2021/07/31 01:31:55;;;;;;;8.30;3.87;;;14.80;99.90;;;;;;5223377;28;20194;-71
2021/07/31 01:34:27;;;;;;;7.50;3.97;;;14.90;99.90;;;;;;5208848;28;20236;-70
2021/07/31 01:36:59;;;;;;;9.07;3.77;;;14.80;99.90;;;;;;5210074;28;20213;-71
2021/07/31 01:39:30;;;;;;;8.53;4.50;;;14.90;99.90;;;;;;5210931;28;20221;-71
2021/07/31 01:42:09;;;;;;;5.70;3.70;;;14.90;99.90;;;;;;5210846;28;20206;-68
2021/07/31 01:44:41;;;;;;;6.27;4.17;;;14.90;99.90;;;;;;5211601;28;20190;-71
2021/07/31 01:47:12;;;;;;;8.77;4.30;;;15.00;99.90;;;;;;5211147;28;20269;-71
2021/07/31 01:49:44;;;;;;;5.23;3.70;;;15.00;99.90;;;;;;5210724;28;20206;-74
2021/07/31 01:52:19;;;;;;;6.47;3.43;;;15.00;99.90;;;;;;5210743;28;20503;-70
2021/07/31 01:54:51;;;;;;;6.30;3.30;;;15.00;99.90;;;;;;5210003;28;20230;-70
2021/07/31 01:57:23;;;;;;;5.27;3.23;;;15.00;99.90;;;;;;5210306;28;20585;-71
2021/07/31 01:59:55;;;;;;;5.67;3.30;;;15.00;99.90;;;;;;5213023;28;20641;-71
2021/07/31 02:02:29;;;;;;;6.20;3.63;;;14.90;99.90;;;;;;5211807;28;20194;-69
2021/07/31 02:05:03;;;;;;;6.93;3.50;;;14.90;99.90;;;;;;5213734;28;20325;-69
2021/07/31 02:07:35;;;;;;;11.50;3.77;;;14.90;99.90;;;;;;5212570;28;20244;-68
2021/07/31 02:10:08;;;;;;;7.03;3.53;;;15.00;99.90;;;;;;5210611;28;20202;-73
2021/07/31 02:12:43;;;;;;;5.03;3.37;;;15.00;99.90;;;;;;5209222;28;20610;-71
2021/07/31 02:15:16;;;;;;;6.60;3.57;;;14.90;99.90;;;;;;5210222;28;20206;-73
2021/07/31 02:17:48;;;;;;;6.30;3.80;;;14.90;99.90;;;;;;5209637;28;20190;-71
2021/07/31 02:20:21;;;;;;;5.20;3.87;;;14.80;99.90;;;;;;5210106;28;20199;-72
2021/07/31 02:22:53;;;;;;;4.57;3.50;;;14.80;99.90;;;;;;5225825;28;20190;-69
2021/07/31 02:25:25;;;;;;;4.70;2.93;;;14.80;99.90;;;;;;5210286;28;20210;-71
2021/07/31 02:27:58;;;;;;;5.90;3.23;;;14.70;99.90;;;;;;5209214;28;20210;-70
2021/07/31 02:30:29;;;;;;;4.73;3.13;;;14.70;99.90;;;;;;5225306;28;20210;-70
2021/07/31 02:33:02;;;;;;;4.37;3.40;;;14.60;99.90;;;;;;5210433;28;20226;-73
2021/07/31 02:35:34;;;;;;;5.23;3.17;;;14.60;99.90;;;;;;5210133;28;20209;-72
2021/07/31 02:38:05;;;;;;;7.63;3.67;;;14.60;99.90;;;;;;5209998;28;20198;-71
2021/07/31 02:40:37;;;;;;;6.37;4.13;;;14.50;99.90;;;;;;5208849;28;20255;-72
2021/07/31 02:43:09;;;;;;;5.63;3.20;;;14.50;99.90;;;;;;5208979;28;20301;-73
2021/07/31 02:45:41;;;;;;;8.07;3.40;;;14.50;99.90;;;;;;5208412;28;20202;-73
2021/07/31 02:48:14;;;;;;;5.33;3.50;;;14.50;99.90;;;;;;5209761;28;20575;-68
2021/07/31 02:50:46;;;;;;;4.40;3.47;;;14.40;99.90;;;;;;5208993;28;20217;-75
2021/07/31 02:53:20;;;;;;;4.27;3.33;;;14.50;99.90;;;;;;5209528;28;20555;-72
2021/07/31 02:55:52;;;;;;;5.20;3.20;;;14.50;99.90;;;;;;5208396;28;20283;-72
2021/07/31 02:58:26;;;;;;;5.87;3.37;;;14.50;99.90;;;;;;5209542;28;20567;-71
2021/07/31 03:01:03;;;;;;;8.53;3.10;;;14.50;99.90;;;;;;5208878;28;20230;-70
2021/07/31 03:03:38;;;;;;;5.23;3.30;;;14.50;99.90;;;;;;5208604;28;20261;-71
2021/07/31 03:06:09;;;;;;;3.93;3.40;;;14.50;99.90;;;;;;5208122;28;20233;-69
2021/07/31 03:08:42;;;;;;;3.93;3.30;;;14.50;99.90;;;;;;5208536;28;20487;-70
2021/07/31 03:11:13;;;;;;;8.03;3.43;;;14.50;99.90;;;;;;5208677;28;20237;-68
2021/07/31 03:13:48;;;;;;;7.47;3.80;;;14.50;99.90;;;;;;5209470;28;20516;-72
2021/07/31 03:16:22;;;;;;;4.60;3.30;;;14.50;99.90;;;;;;5209269;28;20325;-71
2021/07/31 03:18:54;;;;;;;6.77;4.20;;;14.50;99.90;;;;;;5208947;28;20201;-71
2021/07/31 03:21:28;;;;;;;7.83;3.83;;;14.60;99.90;;;;;;5209101;28;20233;-72
2021/07/31 03:24:00;;;;;;;6.23;4.17;;;14.60;99.90;;;;;;5207785;28;20209;-70
2021/07/31 03:26:32;;;;;;;8.73;4.23;;;14.70;99.90;;;;;;5208585;28;20672;-69
2021/07/31 03:29:04;;;;;;;6.73;3.70;;;14.60;99.90;;;;;;5208910;28;20217;-68
2021/07/31 03:31:36;;;;;;;5.20;3.97;;;14.70;99.90;;;;;;5208940;28;20575;-72
2021/07/31 03:34:11;;;;;;;6.90;3.93;;;14.70;99.90;;;;;;5208911;28;20288;-70
2021/07/31 03:36:51;;;;;;;7.33;4.37;;;14.70;99.90;;;;;;5207815;28;20241;-71
2021/07/31 03:39:24;;;;;;;6.13;3.90;;;14.70;99.90;;;;;;5208218;28;20206;-70
2021/07/31 03:41:57;;;;;;;7.83;4.07;;;14.70;99.90;;;;;;5209207;28;20534;-71
2021/07/31 03:44:31;;;;;;;7.80;4.37;;;14.70;99.90;;;;;;5207442;28;20202;-71
2021/07/31 03:47:03;;;;;;;5.77;3.87;;;14.70;99.90;;;;;;5207758;28;20238;-71
2021/07/31 03:49:35;;;;;;;4.10;3.27;;;14.80;99.90;;;;;;5207795;28;20221;-70
2021/07/31 03:52:07;;;;;;;5.57;3.73;;;14.80;99.90;;;;;;5208403;28;20256;-72
2021/07/31 03:54:41;;;;;;;6.27;3.53;;;14.80;99.90;;;;;;5207495;28;20221;-71
2021/07/31 03:57:14;;;;;;;6.03;3.80;;;14.90;99.90;;;;;;5206561;28;20287;-70
2021/07/31 03:59:45;;;;;;;4.73;3.27;;;14.90;99.90;;;;;;5208258;28;20202;-72
2021/07/31 04:02:17;;;;;;;6.03;3.97;;;15.00;99.90;;;;;;5207068;28;20241;-72
2021/07/31 04:04:50;;;;;;;5.30;3.80;;;15.00;99.90;;;;;;5207223;28;20261;-70
2021/07/31 04:07:25;;;;;;;9.70;3.97;;;15.10;99.90;;;;;;5208454;28;20241;-68
2021/07/31 04:09:57;;;;;;;6.67;3.93;;;15.20;99.90;;;;;;5191912;28;20196;-69
2021/07/31 04:12:30;;;;;;;5.67;3.70;;;15.20;99.90;;;;;;5206836;28;20234;-69
2021/07/31 04:15:03;;;;;;;6.07;3.97;;;15.30;99.90;;;;;;5207462;28;20234;-67
2021/07/31 04:17:35;;;;;;;6.97;4.37;;;15.40;99.90;;;;;;5208751;28;20233;-69
2021/07/31 04:20:09;;;;;;;7.83;3.97;;;15.50;99.90;;;;;;5210295;28;20198;-69
2021/07/31 04:22:41;;;;;;;5.17;3.70;;;15.60;99.90;;;;;;5208306;28;20237;-71
2021/07/31 04:25:13;;;;;;;7.70;4.27;;;15.70;99.90;;;;;;5209097;28;20526;-69
2021/07/31 04:27:45;;;;;;;6.70;4.10;;;15.80;99.90;;;;;;5224661;28;20229;-71
2021/07/31 04:30:17;;;;;;;9.03;4.23;;;15.90;99.90;;;;;;5209503;28;20202;-71
2021/07/31 04:32:49;;;;;;;7.43;4.57;;;16.00;99.90;;;;;;5207295;28;20236;-70
2021/07/31 04:35:21;;;;;;;5.63;4.30;;;16.10;99.90;;;;;;5207053;28;20236;-69
2021/07/31 04:37:53;;;;;;;5.60;4.00;;;16.20;99.90;;;;;;5208097;28;20245;-70
2021/07/31 04:40:27;;;;;;;5.17;3.70;;;16.40;99.90;;;;;;5207755;28;20234;-71
2021/07/31 04:42:59;;;;;;;9.27;4.57;;;16.50;99.90;;;;;;5207725;28;20222;-70
2021/07/31 04:45:31;;;;;;;7.07;4.67;;;16.60;99.90;;;;;;5207200;28;20256;-69
2021/07/31 04:48:04;;;;;;;7.00;4.80;;;16.70;99.90;;;;;;5208054;28;20579;-71
2021/07/31 04:50:36;;;;;;;8.87;4.67;;;16.80;99.90;;;;;;5206707;28;20284;-72
2021/07/31 04:53:10;;;;;;;10.00;4.93;;;16.90;99.90;;;;;;5206631;28;20237;-69
2021/07/31 04:55:47;;;;;;;7.97;4.20;;;17.10;99.90;;;;;;5206734;28;20210;-72
2021/07/31 04:58:19;;;;;;;6.30;3.73;;;17.20;99.90;;;;;;5206838;28;20649;-70
2021/07/31 05:00:59;;;;;;;7.60;4.30;;;17.40;99.90;;;;;;5207584;28;20202;-70
2021/07/31 05:03:31;;;;;;;8.13;3.97;;;17.50;99.90;;;;;;5207748;28;20233;-69
2021/07/31 05:06:06;;;;;;;8.67;4.90;;;17.70;99.90;;;;;;5206514;28;20638;-70
2021/07/31 05:08:41;;;;;;;6.85;3.80;;;17.80;99.90;;;;;;5210029;28;20225;-68
2021/07/31 05:11:13;;;;;;;7.38;3.88;;;18.00;99.90;;;;;;5211298;28;20546;-71
2021/07/31 05:13:45;;;;;;;6.25;3.90;;;18.10;99.90;;;;;;5210758;28;20687;-71
2021/07/31 05:16:18;;;;;;;7.07;3.47;;;18.20;99.90;;;;;;5211939;28;20264;-68
2021/07/31 05:18:50;;;;;;;6.70;4.15;;;18.40;99.90;;;;;;5211292;28;20329;-72
2021/07/31 05:21:25;;;;;;;5.53;3.50;;;18.50;99.90;;;;;;5194541;28;20209;-72
2021/07/31 05:23:56;;;;;;;6.45;3.33;;;18.70;99.90;;;;;;5212068;28;20244;-69
2021/07/31 05:26:31;;;;;;;10.20;4.15;;;18.90;99.90;;;;;;5211662;28;20272;-70
2021/07/31 05:29:09;;;;;;;8.82;3.53;;;19.10;99.90;;;;;;5211506;28;20547;-73
2021/07/31 05:31:42;;;;;;;9.30;3.60;;;19.40;99.90;;;;;;5211867;28;20240;-71
2021/07/31 05:34:14;;;;;;;8.23;3.88;;;19.60;99.90;;;;;;5210289;28;20230;-71
2021/07/31 05:36:46;;;;;;;4.75;3.28;;;19.80;99.90;;;;;;5211406;28;20499;-71
2021/07/31 05:39:20;;;;;;;5.30;3.50;;;20.00;99.90;;;;;;5209910;28;20276;-69
2021/07/31 05:41:51;;;;;;;6.65;3.50;;;20.10;99.90;;;;;;5211270;28;20605;-72
2021/07/31 05:44:23;;;;;;;5.18;3.25;;;20.20;99.90;;;;;;5211175;28;20234;-71
2021/07/31 05:46:56;;;;;;;5.55;3.35;;;20.10;99.90;;;;;;5209648;28;20210;-72
2021/07/31 05:49:31;;;;;;;6.30;2.80;;;20.20;99.90;;;;;;5210763;28;20230;-73
2021/07/31 05:52:05;;;;;;;6.72;3.33;;;20.20;99.90;;;;;;5209895;28;20206;-71
2021/07/31 05:54:37;;;;;;;6.22;2.97;;;20.20;99.90;;;;;;5209481;28;20222;-73
2021/07/31 05:57:09;;;;;;;6.93;3.13;;;20.40;99.90;;;;;;5209532;28;20245;-72
2021/07/31 05:59:40;;;;;;;3.80;2.63;;;20.40;99.90;;;;;;5211057;28;20230;-72
2021/07/31 06:02:12;;;;;;;4.25;3.10;;;20.60;99.90;;;;;;5226462;28;20210;-71
2021/07/31 06:04:44;;;;;;;11.68;3.78;;;20.70;99.90;;;;;;5210658;28;20287;-70
2021/07/31 06:07:17;;;;;;;6.20;3.08;;;20.80;99.90;;;;;;5210852;28;20568;-71
2021/07/31 06:09:53;;;;;;;6.82;3.00;;;20.90;99.90;;;;;;5209688;28;20229;-71
2021/07/31 06:12:25;;;;;;;9.75;3.40;;;21.20;99.90;;;;;;5210854;28;20293;-73
2021/07/31 06:14:57;;;;;;;5.38;3.17;;;22.60;99.90;;;;;;5210578;28;20241;-69
2021/07/31 06:17:29;;;;;;;4.60;2.83;;;24.50;99.90;;;;;;5210383;28;20206;-69
2021/07/31 06:20:04;;;;;;;6.80;3.00;;;26.50;99.90;;;;;;5209664;28;20262;-72
2021/07/31 06:22:36;;;;;;;4.78;2.65;;;28.60;99.90;;;;;;5209295;28;20209;-71
2021/07/31 06:25:08;;;;;;;4.75;2.50;;;30.30;99.90;;;;;;5209711;28;20268;-72
2021/07/31 06:27:43;;;;;;;9.52;3.03;;;31.80;99.40;;;;;;5209256;28;20224;-74
2021/07/31 06:30:15;;;;;;;5.28;2.65;;;32.80;95.60;;;;;;5209361;28;20562;-72
2021/07/31 06:32:48;;;;;;;6.68;2.83;;;33.70;93.20;;;;;;5210107;28;20210;-70
2021/07/31 06:35:25;;;;;;;5.70;2.45;;;34.40;91.00;;;;;;5212143;28;20234;-71
2021/07/31 06:37:59;;;;;;;6.00;2.45;;;34.90;89.10;;;;;;5211569;28;20268;-71
2021/07/31 06:40:36;;;;;;;5.82;2.30;;;34.80;86.30;;;;;;5210323;28;20213;-70
2021/07/31 06:43:07;;;;;;;5.28;2.40;;;34.60;85.60;;;;;;5209965;28;20210;-71
2021/07/31 06:45:41;;;;;;;6.93;3.00;;;33.90;83.70;;;;;;5193669;28;20217;-70
2021/07/31 06:48:13;;;;;;;3.85;2.58;;;33.50;85.40;;;;;;5208894;28;20202;-71
2021/07/31 06:50:44;;;;;;;9.13;2.83;;;33.10;83.80;;;;;;5209384;28;20198;-70
2021/07/31 06:53:19;;;;;;;5.07;2.40;;;32.60;85.00;;;;;;5208906;28;20206;-71
2021/07/31 06:55:50;;;;;;;7.13;2.63;;;32.00;86.00;;;;;;5210559;28;20222;-71
2021/07/31 06:58:22;;;;;;;7.03;2.80;;;32.10;85.70;;;;;;5208568;28;20241;-72
2021/07/31 07:00:54;;;;;;;4.88;2.80;;;31.80;85.00;;;;;;5208664;28;20206;-69
2021/07/31 07:03:27;;;;;;;3.45;2.35;;;32.00;85.20;;;;;;5208541;28;20238;-73
2021/07/31 07:06:05;;;;;;;8.25;2.40;;;32.30;84.30;;;;;;5209749;28;20210;-72
2021/07/31 07:08:37;;;;;;;7.30;2.92;;;32.70;84.00;;;;;;5209219;28;20210;-73
2021/07/31 07:11:13;;;;;;;8.23;2.80;;;32.80;83.20;;;;;;5209401;28;20206;-71
2021/07/31 07:13:45;;;;;;;4.57;2.78;;;32.90;82.90;;;;;;5208153;28;20532;-73
2021/07/31 07:16:17;;;;;;;4.43;2.42;;;32.40;84.00;;;;;;5208214;28;20301;-70
2021/07/31 07:18:49;;;;;;;5.78;2.60;;;31.80;85.70;;;;;;5209257;28;20216;-72
2021/07/31 07:21:21;;;;;;;7.10;2.72;;;30.80;85.70;;;;;;5209518;28;20621;-71
2021/07/31 07:23:54;;;;;;;4.03;2.60;;;29.90;87.10;;;;;;5208357;28;20210;-71
2021/07/31 07:26:26;;;;;;;5.75;3.00;;;29.10;88.50;;;;;;5208909;28;20503;-71
2021/07/31 07:28:58;;;;;;;4.60;2.80;;;28.50;89.10;;;;;;5208949;28;20206;-70
2021/07/31 07:31:32;;;;;;;5.95;2.88;;;28.20;90.20;;;;;;5207811;28;20198;-71
2021/07/31 07:34:04;;;;;;;5.22;2.90;;;27.90;90.20;;;;;;5207426;28;20206;-73
2021/07/31 07:36:41;;;;;;;4.57;3.20;;;27.70;90.50;;;;;;5208940;28;20557;-69
2021/07/31 07:39:13;;;;;;;10.77;3.17;;;27.70;90.80;;;;;;5207978;28;20229;-71
2021/07/31 07:41:45;;;;;;;5.72;3.10;;;27.90;91.30;;;;;;5208301;28;20202;-71
2021/07/31 07:44:17;;;;;;;4.15;2.72;;;27.90;91.40;;;;;;5208599;28;20216;-74
2021/07/31 07:46:49;;;;;;;7.78;3.35;;;28.20;91.60;;;;;;5209069;28;20210;-71
2021/07/31 07:49:21;;;;;;;6.00;2.63;;;28.50;91.70;;;;;;5208844;28;20213;-72
2021/07/31 07:51:53;;;;;;;6.97;3.28;;;28.90;91.70;;;;;;5191941;28;20220;-72
2021/07/31 07:54:25;;;;;;;5.72;2.92;;;28.70;91.20;;;;;;5209002;28;20218;-71
2021/07/31 07:56:57;;;;;;;4.82;2.88;;;28.50;91.00;;;;;;5208335;28;20563;-70
2021/07/31 07:59:34;;;;;;;7.03;3.17;;;28.20;91.60;;;;;;5208223;28;20202;-72
2021/07/31 08:02:07;;;;;;;5.13;3.10;;;27.90;91.90;;;;;;5207657;28;20652;-69
2021/07/31 08:04:40;;;;;;;5.60;3.00;;;27.60;92.30;;;;;;5207334;28;20268;-70
2021/07/31 08:07:12;;;;;;;5.07;3.05;;;27.30;92.60;;;;;;5207799;28;20194;-71
2021/07/31 08:09:44;;;;;;;9.70;3.10;;;27.00;93.10;;;;;;5209351;28;20533;-69
2021/07/31 08:12:17;;;;;;;6.03;2.97;;;26.90;93.80;;;;;;5207214;28;20194;-70
2021/07/31 08:14:50;;;;;;;8.45;3.10;;;26.70;93.90;;;;;;5206857;28;20225;-71
2021/07/31 08:17:22;;;;;;;5.72;3.20;;;26.50;94.20;;;;;;5208266;28;20269;-73
2021/07/31 08:19:54;;;;;;;4.68;3.10;;;26.50;94.70;;;;;;5207530;28;20518;-73
2021/07/31 08:22:29;;;;;;;11.25;3.40;;;26.40;95.20;;;;;;5191126;28;20190;-70
2021/07/31 08:25:01;;;;;;;5.50;3.42;;;26.20;94.80;;;;;;5208549;28;20217;-70
2021/07/31 08:27:33;;;;;;;6.40;3.25;;;26.00;94.50;;;;;;5208519;28;20213;-72
2021/07/31 08:30:07;;;;;;;7.20;3.38;;;25.80;94.80;;;;;;5208416;28;20638;-72
2021/07/31 08:32:43;;;;;;;10.02;3.78;;;25.70;94.80;;;;;;5208022;28;20206;-75
2021/07/31 08:35:16;;;;;;;6.57;3.50;;;25.70;95.00;;;;;;5208519;28;20609;-70
2021/07/31 08:37:47;;;;;;;7.22;3.05;;;25.90;95.50;;;;;;5208549;28;20522;-72
2021/07/31 08:40:21;;;;;;;7.05;3.42;;;26.10;95.70;;;;;;5206890;28;20198;-70
2021/07/31 08:42:53;;;;;;;5.82;3.25;;;26.20;95.40;;;;;;5209507;28;20206;-71
2021/07/31 08:45:25;;;;;;;7.68;3.33;;;26.10;95.40;;;;;;5212953;28;20213;-68
2021/07/31 08:48:03;;;;;;;5.13;3.42;;;26.00;95.60;;;;;;5196443;28;20575;-71
2021/07/31 08:50:37;;;;;;;5.78;3.30;;;26.00;95.90;;;;;;5213897;28;20287;-70
2021/07/31 08:53:11;;;;;;;6.70;2.78;;;25.90;95.70;;;;;;5214459;28;20209;-72
2021/07/31 08:55:44;;;;;;;4.90;3.00;;;25.70;95.60;;;;;;5216714;28;20237;-68
2021/07/31 08:58:16;;;;;;;6.50;2.83;;;25.70;96.10;;;;;;5212934;28;20238;-69
2021/07/31 09:00:48;;;;;;;4.30;2.60;;;25.60;96.30;;;;;;5212036;28;20275;-71
2021/07/31 09:03:21;;;;;;;4.63;3.13;;;25.60;96.50;;;;;;5211093;28;20202;-68
2021/07/31 09:05:53;;;;;;;6.57;3.63;;;25.70;97.10;;;;;;5212096;28;20653;-71
2021/07/31 09:08:25;;;;;;;5.15;3.30;;;25.70;96.90;;;;;;5212165;28;20209;-69
2021/07/31 09:11:04;;;;;;;6.88;2.90;;;25.80;97.00;;;;;;5194386;28;20329;-73
2021/07/31 09:13:38;;;;;;;6.68;3.38;;;25.80;97.10;;;;;;5214109;28;20801;-74
2021/07/31 09:16:11;;;;;;;7.15;3.83;;;25.90;96.70;;;;;;5212092;28;20237;-71
2021/07/31 09:18:45;;;;;;;9.52;3.65;;;25.90;96.90;;;;;;5194943;28;20271;-72
2021/07/31 09:21:17;;;;;;;7.13;3.70;;;26.00;97.10;;;;;;5211572;28;20230;-72
2021/07/31 09:23:52;;;;;;;9.50;3.58;;;26.10;97.10;;;;;;5211749;28;20216;-74
2021/07/31 09:26:25;;;;;;;6.28;3.70;;;26.20;97.10;;;;;;5211822;28;20276;-74
2021/07/31 09:28:58;;;;;;;6.13;3.30;;;26.30;97.10;;;;;;5212032;28;20498;-73
2021/07/31 09:31:34;;;;;;;7.85;3.50;;;26.30;96.90;;;;;;5211675;28;20289;-70
2021/07/31 09:34:09;;;;;;;6.63;3.67;;;26.30;96.70;;;;;;5210487;28;20198;-71
2021/07/31 09:36:42;;;;;;;6.13;3.00;;;26.30;97.30;;;;;;5211530;28;20230;-72
2021/07/31 09:39:14;;;;;;;7.30;3.50;;;26.50;97.60;;;;;;5211960;28;20640;-70
2021/07/31 09:41:51;;;;;;;7.05;3.35;;;26.70;97.80;;;;;;5193684;28;20230;-75
2021/07/31 09:44:25;;;;;;;5.32;3.15;;;26.80;97.40;;;;;;5210388;28;20194;-71
2021/07/31 09:47:01;;;;;;;4.80;2.70;;;26.90;96.90;;;;;;5211598;28;20225;-70
2021/07/31 09:49:40;;;;;;;4.18;3.05;;;27.00;97.00;;;;;;5194508;28;20210;-72
2021/07/31 09:52:22;;;;;;;5.65;2.97;;;27.00;96.90;;;;;;5210618;28;20675;-71
2021/07/31 09:54:57;;;;;;;9.73;3.42;;;27.00;96.70;;;;;;5209954;28;20206;-70
2021/07/31 09:57:30;;;;;;;7.32;3.28;;;27.00;97.00;;;;;;5210842;28;20237;-74
2021/07/31 10:00:04;;;;;;;5.80;3.35;;;26.80;96.80;;;;;;5210886;28;20748;-71
2021/07/31 10:02:38;;;;;;;4.93;3.70;;;26.70;96.90;;;;;;5210735;28;20236;-72
2021/07/31 10:05:11;;;;;;;5.60;3.42;;;26.80;97.30;;;;;;5210255;28;20618;-71
2021/07/31 10:07:43;;;;;;;7.22;3.38;;;26.80;97.00;;;;;;5209715;28;20556;-72
2021/07/31 10:10:20;;;;;;;7.68;3.90;;;26.60;97.30;;;;;;5226659;28;20214;-69
2021/07/31 10:12:54;;;;;;;9.35;3.38;;;26.60;97.00;;;;;;5210771;28;20225;-70
2021/07/31 10:15:26;;;;;;;7.30;3.80;;;26.40;97.20;;;;;;5209478;28;20237;-71
2021/07/31 10:17:59;;;;;;;9.00;3.50;;;26.40;97.20;;;;;;5209700;28;20226;-72
2021/07/31 10:20:32;;;;;;;9.90;3.85;;;26.30;97.40;;;;;;5209283;28;20630;-74
2021/07/31 10:23:08;;;;;;;8.60;3.92;;;26.20;97.30;;;;;;5225771;28;20676;-70
2021/07/31 10:26:10;;;;;;;5.80;3.80;;;26.30;98.10;;;;;;5210087;28;20616;-69
2021/07/31 10:28:42;;;;;;;6.30;3.88;;;26.30;97.20;;;;;;5209272;28;20230;-70
2021/07/31 10:31:33;;;;;;;6.63;3.42;;;26.40;97.80;;;;;;5209636;28;20213;-71
2021/07/31 10:34:06;;;;;;;4.50;3.30;;;26.50;98.00;;;;;;5210287;28;20218;-73
2021/07/31 10:36:39;;;;;;;9.48;3.95;;;26.60;98.10;;;;;;5210372;28;20693;-68
2021/07/31 10:39:26;;;;;;;7.13;3.70;;;26.70;98.10;;;;;;5193032;28;20186;-71
2021/07/31 10:42:02;;;;;;;7.15;3.95;;;26.80;97.90;;;;;;5210032;28;20649;-72
2021/07/31 10:44:35;;;;;;;7.75;3.90;;;26.80;97.80;;;;;;5211533;28;20602;-70
2021/07/31 10:47:19;;;;;;;8.88;4.30;;;26.70;98.40;;;;;;5210765;28;20234;-70
2021/07/31 10:49:51;;;;;;;11.55;3.95;;;26.80;98.60;;;;;;5209951;28;20190;-71
2021/07/31 10:52:54;;;;;;;8.38;4.15;;;26.80;98.80;;;;;;5208907;28;20316;-68
2021/07/31 10:55:36;;;;;;;7.70;4.20;;;26.80;98.60;;;;;;5209866;28;20567;-71
2021/07/31 10:58:17;;;;;;;6.97;3.97;;;26.90;98.70;;;;;;5209508;28;20241;-71
2021/07/31 11:00:55;;;;;;;7.63;4.35;;;26.90;98.70;;;;;;5226933;28;20198;-71
2021/07/31 11:03:33;;;;;;;8.40;4.30;;;27.00;98.10;;;;;;5211888;28;20229;-74
2021/07/31 11:06:07;;;;;;;7.35;4.22;;;27.00;98.30;;;;;;5212411;28;20209;-73
2021/07/31 11:08:45;;;;;;;7.75;4.22;;;27.00;98.30;;;;;;5211073;28;20216;-72
2021/07/31 11:11:19;;;;;;;9.90;4.35;;;27.00;98.30;;;;;;5209691;28;20625;-70
2021/07/31 11:13:54;;;;;;;9.32;4.50;;;27.10;98.10;;;;;;5209129;28;20229;-68
2021/07/31 11:16:26;;;;;;;5.88;4.43;;;27.00;98.00;;;;;;5208871;28;20547;-68
2021/07/31 11:19:00;;;;;;;6.90;4.07;;;27.00;98.50;;;;;;5208167;28;20212;-68
2021/07/31 11:21:34;;;;;;;5.93;4.15;;;27.10;98.10;;;;;;5208264;28;20209;-66
2021/07/31 11:24:11;;;;;;;8.13;4.35;;;27.20;98.20;;;;;;5224411;28;20241;-67
2021/07/31 11:26:48;;;;;;;8.52;4.38;;;27.20;97.80;;;;;;5208851;28;20202;-66
2021/07/31 11:29:29;;;;;;;5.82;4.10;;;27.10;97.70;;;;;;5208882;28;20676;-71
2021/07/31 11:32:12;;;;;;;9.75;4.10;;;27.00;97.50;;;;;;5192192;28;20198;-66
2021/07/31 11:34:45;;;;;;;6.80;4.18;;;26.80;97.50;;;;;;5207789;28;20194;-67
2021/07/31 11:37:17;;;;;;;8.35;3.92;;;26.70;97.40;;;;;;5208685;28;20230;-69
2021/07/31 11:39:49;;;;;;;4.40;3.63;;;26.60;97.30;;;;;;5208086;28;20213;-67
2021/07/31 11:42:23;;;;;;;7.00;3.92;;;26.50;97.70;;;;;;5208390;28;20206;-68
2021/07/31 11:45:02;;;;;;;7.97;3.63;;;26.50;97.90;;;;;;5208612;28;20202;-66
2021/07/31 11:47:39;;;;;;;6.22;3.95;;;26.40;98.20;;;;;;5207776;28;20187;-67
2021/07/31 11:50:12;;;;;;;8.48;3.70;;;26.40;98.90;;;;;;5208780;28;20201;-68
2021/07/31 11:52:44;;;;;;;10.00;3.72;;;26.10;99.90;;;;;;5191371;28;20206;-69
2021/07/31 11:55:27;;;;;;;6.53;3.97;;;25.90;99.90;;;;;;5191057;28;20613;-67
2021/07/31 11:57:59;;;;;;;7.68;3.90;;;25.70;99.90;;;;;;5223448;28;20558;-68
2021/07/31 12:00:31;;;;;;;7.00;4.15;;;25.60;99.90;;;;;;5191816;28;20515;-68
2021/07/31 12:03:41;;;;;;;5.43;3.78;;;25.60;99.90;;;;;;5223908;28;20202;-69
2021/07/31 12:06:35;;;;;;;6.90;4.00;;;25.50;99.90;;;;;;5207254;28;20206;-67
2021/07/31 12:09:22;;;;;;;8.02;4.13;;;25.70;99.90;;;;;;5208200;28;20270;-66
2021/07/31 12:11:56;;;;;;;7.45;4.60;;;25.80;99.90;;;;;;5208628;28;20204;-66
2021/07/31 12:14:38;;;;;;;4.40;3.75;;;25.90;99.90;;;;;;5224115;28;20253;-64
2021/07/31 12:17:21;;;;;;;6.22;3.78;;;26.20;99.90;;;;;;5206666;28;20264;-69
2021/07/31 12:19:57;;;;;;;6.38;3.88;;;26.30;99.90;;;;;;5224144;28;20237;-68
2021/07/31 12:22:34;;;;;;;6.70;4.25;;;26.40;99.90;;;;;;5208749;28;20514;-66
2021/07/31 12:25:09;;;;;;;6.75;3.78;;;26.50;99.90;;;;;;5208171;28;20240;-66
2021/07/31 12:27:53;;;;;;;8.27;4.18;;;26.60;99.90;;;;;;5207134;28;20514;-68
2021/07/31 12:30:37;;;;;;;6.05;3.67;;;26.50;99.80;;;;;;5207006;28;20289;-67
2021/07/31 12:33:09;;;;;;;8.77;4.45;;;26.40;99.90;;;;;;5207857;28;20572;-68
2021/07/31 12:35:50;;;;;;;8.98;4.68;;;26.20;99.90;;;;;;5208061;28;20230;-69
2021/07/31 12:38:24;;;;;;;5.97;3.97;;;26.10;99.90;;;;;;5207815;28;20355;-68
2021/07/31 12:41:01;;;;;;;5.57;4.68;;;26.00;99.90;;;;;;5207147;28;20202;-68
2021/07/31 12:43:34;;;;;;;6.70;4.32;;;26.00;99.90;;;;;;5223414;28;20208;-67
2021/07/31 12:46:08;;;;;;;6.88;3.92;;;26.10;99.90;;;;;;5206904;28;20556;-65
2021/07/31 12:48:40;;;;;;;7.43;4.40;;;26.40;99.90;;;;;;5207786;28;20229;-68
2021/07/31 12:51:14;;;;;;;5.25;3.70;;;26.50;99.80;;;;;;5223251;28;20214;-69
2021/07/31 12:53:51;;;;;;;6.03;3.53;;;26.60;99.00;;;;;;5207882;28;20563;-65
2021/07/31 12:56:25;;;;;;;6.57;3.72;;;26.60;98.90;;;;;;5206488;28;20619;-67
2021/07/31 12:58:57;;;;;;;5.97;3.97;;;26.50;97.90;;;;;;5206738;28;20237;-67
2021/07/31 13:01:29;;;;;;;9.23;3.97;;;26.60;98.70;;;;;;5208108;28;20553;-69
2021/07/31 13:04:06;;;;;;;6.32;3.92;;;26.70;98.70;;;;;;5207057;28;20532;-68
2021/07/31 13:06:38;;;;;;;8.80;3.40;;;26.80;99.40;;;;;;5207871;28;20201;-68
2021/07/31 13:09:11;;;;;;;4.68;3.28;;;26.90;98.10;;;;;;5207782;28;20303;-67
2021/07/31 13:11:43;;;;;;;8.20;3.83;;;26.90;97.80;;;;;;5207607;28;20210;-66
2021/07/31 13:14:15;;;;;;;7.25;3.75;;;26.90;97.90;;;;;;5190402;28;20241;-66
2021/07/31 13:16:52;;;;;;;4.55;3.30;;;27.00;97.40;;;;;;5210079;28;20210;-65
2021/07/31 13:19:26;;;;;;;5.30;3.47;;;26.90;97.50;;;;;;5206799;28;20234;-67
2021/07/31 13:21:59;;;;;;;7.80;3.97;;;26.90;97.50;;;;;;5208336;28;20206;-69